B41 EFKU-EFJY

Flight info

Callsign B41
Flight time 0h 17m
Altitude 20000
Route NISPO DCT RERGA
Aircraft HAWK/M-SDGIRY/C

Departure

Time 2026-04-26 11:01
Airport Kuopio Airport (EFKU)

Arrival

Time 2026-04-26 11:19
Airport Jyväskylä Airport (EFJY)
Time Latitude Longitude Altitude Speed Heading
2026-04-26 10:43 63.00395 27.79065 323 ft 0 kts 246°
2026-04-26 10:54 63.00394 27.79061 323 ft 1 kts 248°
2026-04-26 10:54 63.00383 27.79023 323 ft 4 kts 210°
2026-04-26 10:54 63.00353 27.79036 323 ft 6 kts 158°
2026-04-26 10:54 63.00308 27.79080 323 ft 8 kts 156°
2026-04-26 10:55 63.00250 27.79138 323 ft 10 kts 158°
2026-04-26 10:55 63.00182 27.79200 323 ft 10 kts 161°
2026-04-26 10:55 63.00172 27.79260 324 ft 7 kts 65°
2026-04-26 10:55 63.00199 27.79374 324 ft 10 kts 64°
2026-04-26 10:56 63.00233 27.79539 324 ft 13 kts 68°
2026-04-26 10:56 63.00225 27.79652 324 ft 7 kts 128°
2026-04-26 10:56 63.00184 27.79773 324 ft 16 kts 128°
2026-04-26 10:56 63.00074 27.79914 324 ft 19 kts 156°
2026-04-26 10:57 62.99969 27.80038 325 ft 14 kts 113°
2026-04-26 10:57 62.99980 27.80202 325 ft 9 kts 38°
2026-04-26 10:57 62.99991 27.80215 325 ft 0 kts 24°
2026-04-26 10:59 63.00028 27.80236 325 ft 10 kts 360°
2026-04-26 11:00 63.00105 27.80300 323 ft 13 kts 52°
2026-04-26 11:00 63.00122 27.80327 323 ft 0 kts 346°
2026-04-26 11:01 63.00247 27.80214 322 ft 63 kts 335°
2026-04-26 11:01 63.00940 27.79572 370 ft 148 kts 339°
2026-04-26 11:01 63.02107 27.78454 1018 ft 216 kts 339°
2026-04-26 11:01 63.03468 27.76262 2307 ft 268 kts 310°
2026-04-26 11:02 63.03973 27.72233 4078 ft 290 kts 271°
2026-04-26 11:02 63.03509 27.67918 5877 ft 286 kts 258°
2026-04-26 11:02 63.02845 27.63772 7534 ft 300 kts 245°
2026-04-26 11:02 63.01713 27.59806 8739 ft 316 kts 240°
2026-04-26 11:03 63.00374 27.55864 10199 ft 331 kts 226°
2026-04-26 11:03 62.98376 27.53058 11351 ft 352 kts 206°
2026-04-26 11:03 62.96177 27.50723 13285 ft 349 kts 205°
2026-04-26 11:03 62.94010 27.48468 15084 ft 339 kts 206°
2026-04-26 11:04 62.91884 27.46277 16376 ft 338 kts 205°
2026-04-26 11:04 62.89713 27.44191 17396 ft 344 kts 204°
2026-04-26 11:04 62.87497 27.42021 18249 ft 355 kts 207°
2026-04-26 11:04 62.85253 27.39547 18967 ft 367 kts 208°
2026-04-26 11:05 62.82930 27.36846 19419 ft 389 kts 209°
2026-04-26 11:05 62.80485 27.33835 19660 ft 414 kts 210°
2026-04-26 11:05 62.78067 27.30248 19751 ft 428 kts 223°
2026-04-26 11:05 62.76144 27.25183 19938 ft 437 kts 231°
2026-04-26 11:06 62.74284 27.19909 20048 ft 435 kts 232°
2026-04-26 11:06 62.73063 27.16499 20017 ft 426 kts 231°
2026-04-26 11:06 62.70672 27.09813 19975 ft 412 kts 232°
2026-04-26 11:06 62.68992 27.04916 19780 ft 407 kts 233°
2026-04-26 11:07 62.67330 26.99957 19653 ft 401 kts 233°
2026-04-26 11:07 62.65681 26.95241 20030 ft 382 kts 227°
2026-04-26 11:07 62.63928 26.91005 20419 ft 364 kts 226°
2026-04-26 11:07 62.62269 26.87044 20566 ft 355 kts 226°
2026-04-26 11:08 62.60442 26.83369 20123 ft 356 kts 214°
2026-04-26 11:08 62.58390 26.80326 20115 ft 360 kts 209°
2026-04-26 11:08 62.56361 26.77210 20323 ft 363 kts 213°
2026-04-26 11:08 62.54308 26.74189 20166 ft 351 kts 208°
2026-04-26 11:09 62.52632 26.70420 19462 ft 351 kts 230°
2026-04-26 11:09 62.51063 26.66417 18681 ft 351 kts 219°
2026-04-26 11:09 62.49572 26.62249 17657 ft 355 kts 236°
2026-04-26 11:09 62.48233 26.57765 16604 ft 354 kts 235°
2026-04-26 11:10 62.46874 26.53301 15326 ft 359 kts 233°
2026-04-26 11:10 62.45340 26.48907 13607 ft 376 kts 230°
2026-04-26 11:10 62.43559 26.44663 12408 ft 380 kts 225°
2026-04-26 11:10 62.41668 26.40899 12100 ft 358 kts 219°
2026-04-26 11:11 62.39916 26.37283 11374 ft 347 kts 225°
2026-04-26 11:11 62.38435 26.33133 10057 ft 340 kts 235°
2026-04-26 11:11 62.37135 26.29465 8900 ft 284 kts 233°
2026-04-26 11:11 62.35822 26.26441 7130 ft 274 kts 222°
2026-04-26 11:12 62.34389 26.23913 5843 ft 256 kts 220°
2026-04-26 11:12 62.33087 26.21351 4801 ft 261 kts 227°
2026-04-26 11:12 62.31760 26.18240 3274 ft 299 kts 234°
2026-04-26 11:12 62.30683 26.14690 3150 ft 274 kts 250°
2026-04-26 11:13 62.29949 26.11001 2852 ft 263 kts 257°
2026-04-26 11:13 62.29468 26.07355 2585 ft 251 kts 268°
2026-04-26 11:13 62.29525 26.03807 2319 ft 231 kts 289°
2026-04-26 11:13 62.29655 26.00445 2328 ft 222 kts 275°
2026-04-26 11:14 62.29578 25.97204 2342 ft 212 kts 282°
2026-04-26 11:14 62.29686 25.94153 2457 ft 200 kts 288°
2026-04-26 11:14 62.30125 25.91409 2439 ft 191 kts 301°
2026-04-26 11:14 62.30498 25.89684 2365 ft 192 kts 304°
2026-04-26 11:15 62.31503 25.86583 2218 ft 186 kts 320°
2026-04-26 11:15 62.32385 25.84707 2150 ft 173 kts 322°
2026-04-26 11:15 62.33213 25.82910 1864 ft 159 kts 320°
2026-04-26 11:15 62.33920 25.81324 1712 ft 136 kts 322°
2026-04-26 11:16 62.34516 25.79922 1611 ft 115 kts 320°
2026-04-26 11:16 62.35011 25.78740 1508 ft 106 kts 322°
2026-04-26 11:16 62.35528 25.77605 1485 ft 104 kts 326°
2026-04-26 11:16 62.36022 25.76517 1472 ft 100 kts 323°
2026-04-26 11:17 62.36518 25.75452 1245 ft 106 kts 322°
2026-04-26 11:17 62.37030 25.74290 1084 ft 108 kts 321°
2026-04-26 11:17 62.37547 25.73153 908 ft 106 kts 320°
2026-04-26 11:17 62.38033 25.72082 785 ft 98 kts 317°
2026-04-26 11:18 62.38539 25.70959 685 ft 107 kts 318°
2026-04-26 11:18 62.39056 25.69806 521 ft 103 kts 318°
2026-04-26 11:18 62.39501 25.68817 466 ft 75 kts 319°
2026-04-26 11:18 62.39823 25.68109 471 ft 57 kts 314°
2026-04-26 11:19 62.40019 25.67677 469 ft 30 kts 313°
2026-04-26 11:19 62.40070 25.67438 473 ft 12 kts 255°
2026-04-26 11:19 62.40035 25.67340 475 ft 6 kts 221°
2026-04-26 11:19 62.39984 25.67231 473 ft 13 kts 235°
2026-04-26 11:20 62.39990 25.67157 472 ft 5 kts 314°
2026-04-26 11:20 62.40021 25.67083 473 ft 14 kts 316°
2026-04-26 11:20 62.40124 25.66853 475 ft 15 kts 317°
2026-04-26 11:20 62.40187 25.66718 477 ft 12 kts 311°
2026-04-26 11:21 62.40265 25.66543 475 ft 20 kts 320°
2026-04-26 11:21 62.40365 25.66319 475 ft 19 kts 310°
2026-04-26 11:21 62.40397 25.66171 475 ft 9 kts 232°
2026-04-26 11:21 62.40303 25.65967 463 ft 24 kts 226°
2026-04-26 11:22 62.40201 25.65726 462 ft 15 kts 259°
2026-04-26 11:22 62.40187 25.65665 463 ft 0 kts 233°